createdAt,value
2022-12-01T00:00:55.553Z,650.0000
2022-12-01T00:01:57.950Z,652.0000
2022-12-01T00:03:00.272Z,650.0000
2022-12-01T00:03:36.662Z,652.0000
2022-12-01T00:04:38.963Z,654.0000
2022-12-01T00:05:41.256Z,653.0000
2022-12-01T00:06:43.564Z,653.0000
2022-12-01T00:07:43.773Z,652.0000
2022-12-01T00:08:46.054Z,647.0000
2022-12-01T00:09:48.619Z,648.0000
2022-12-01T00:10:50.612Z,646.0000
2022-12-01T00:11:52.858Z,646.0000
2022-12-01T00:12:55.147Z,648.0000
2022-12-01T00:13:57.448Z,651.0000
2022-12-01T00:14:57.538Z,648.0000
2022-12-01T00:15:59.828Z,649.0000
2022-12-01T00:17:02.029Z,647.0000
2022-12-01T00:18:04.294Z,646.0000
2022-12-01T00:19:06.703Z,648.0000
2022-12-01T00:20:08.873Z,645.0000
2022-12-01T00:21:11.162Z,646.0000
2022-12-01T00:22:13.412Z,645.0000
2022-12-01T00:23:13.552Z,645.0000
2022-12-01T00:24:15.880Z,643.0000
2022-12-01T00:25:18.171Z,646.0000
2022-12-01T00:26:20.482Z,645.0000
2022-12-01T00:27:22.798Z,648.0000
2022-12-01T00:28:25.113Z,650.0000
2022-12-01T00:29:27.487Z,652.0000
2022-12-01T00:30:27.584Z,652.0000
2022-12-01T00:31:29.873Z,657.0000
2022-12-01T00:32:32.052Z,650.0000
2022-12-01T00:33:34.325Z,645.0000
2022-12-01T00:34:36.664Z,645.0000
2022-12-01T00:35:38.958Z,640.0000
2022-12-01T00:36:41.299Z,640.0000
2022-12-01T00:37:43.625Z,641.0000
2022-12-01T00:38:45.944Z,638.0000
2022-12-01T00:39:48.627Z,634.0000
2022-12-01T00:40:50.601Z,637.0000
2022-12-01T00:42:40.275Z,636.0000
2022-12-01T00:43:42.480Z,633.0000
2022-12-01T00:44:44.679Z,632.0000
2022-12-01T00:45:47.088Z,633.0000
2022-12-01T00:46:49.242Z,634.0000
2022-12-01T00:47:51.560Z,632.0000
2022-12-01T00:48:53.854Z,628.0000
2022-12-01T00:49:54.000Z,626.0000
2022-12-01T00:50:56.306Z,624.0000
2022-12-01T00:51:58.514Z,626.0000
2022-12-01T00:53:00.811Z,626.0000
2022-12-01T00:54:03.118Z,628.0000
2022-12-01T00:55:05.325Z,628.0000
2022-12-01T00:56:07.577Z,628.0000
2022-12-01T00:57:09.703Z,627.0000
2022-12-01T00:58:11.908Z,622.0000
2022-12-01T00:59:14.140Z,623.0000
2022-12-01T01:00:16.385Z,627.0000
2022-12-01T01:01:16.592Z,624.0000
2022-12-01T01:02:18.854Z,625.0000
2022-12-01T01:03:21.059Z,624.0000
2022-12-01T01:04:23.384Z,625.0000
2022-12-01T01:05:25.675Z,623.0000
2022-12-01T01:06:28.027Z,623.0000
2022-12-01T01:07:30.381Z,625.0000
2022-12-01T01:08:30.495Z,622.0000
2022-12-01T01:09:32.817Z,622.0000
2022-12-01T01:10:35.155Z,619.0000
2022-12-01T01:11:37.512Z,621.0000
2022-12-01T01:12:39.816Z,620.0000
2022-12-01T01:13:39.996Z,623.0000
2022-12-01T01:14:42.336Z,621.0000
2022-12-01T01:15:44.665Z,618.0000
2022-12-01T01:16:47.220Z,621.0000
2022-12-01T01:17:49.231Z,618.0000
2022-12-01T01:18:49.367Z,615.0000
2022-12-01T01:19:51.703Z,611.0000
2022-12-01T01:20:54.053Z,614.0000
2022-12-01T01:21:56.433Z,613.0000
2022-12-01T01:22:58.743Z,612.0000
2022-12-01T01:24:01.070Z,609.0000
2022-12-01T01:25:01.259Z,610.0000
2022-12-01T01:26:03.569Z,610.0000
2022-12-01T01:27:05.935Z,606.0000
2022-12-01T01:28:08.222Z,605.0000
2022-12-01T01:29:10.558Z,605.0000
2022-12-01T01:30:10.727Z,608.0000
2022-12-01T01:31:13.162Z,610.0000
2022-12-01T01:32:15.479Z,613.0000
2022-12-01T01:33:17.760Z,611.0000
2022-12-01T01:34:20.056Z,613.0000
2022-12-01T01:35:22.391Z,609.0000
2022-12-01T01:36:22.621Z,611.0000
2022-12-01T01:37:24.982Z,610.0000
2022-12-01T01:38:27.290Z,606.0000
2022-12-01T01:39:29.649Z,606.0000
2022-12-01T01:40:31.985Z,608.0000
2022-12-01T01:41:32.167Z,603.0000
2022-12-01T01:42:32.374Z,606.0000
2022-12-01T01:43:34.676Z,608.0000
2022-12-01T01:44:37.006Z,601.0000
2022-12-01T01:45:39.391Z,604.0000
2022-12-01T01:46:41.623Z,607.0000
2022-12-01T01:47:41.873Z,602.0000
2022-12-01T01:48:44.129Z,600.0000
2022-12-01T01:49:47.010Z,602.0000
2022-12-01T01:50:48.784Z,601.0000
2022-12-01T01:51:51.134Z,597.0000
2022-12-01T01:52:53.552Z,598.0000
2022-12-01T01:53:55.754Z,595.0000
2022-12-01T01:54:58.055Z,598.0000
2022-12-01T01:56:00.372Z,598.0000
2022-12-01T01:57:02.680Z,600.0000
2022-12-01T01:58:02.836Z,599.0000
2022-12-01T01:59:05.040Z,598.0000
2022-12-01T02:00:07.289Z,598.0000
2022-12-01T02:01:09.571Z,603.0000
2022-12-01T02:02:11.776Z,605.0000
2022-12-01T02:03:13.967Z,601.0000
2022-12-01T02:04:16.161Z,597.0000
2022-12-01T02:05:18.433Z,596.0000
2022-12-01T02:06:20.702Z,598.0000
2022-12-01T02:07:23.034Z,597.0000
2022-12-01T02:08:25.247Z,598.0000
2022-12-01T02:09:25.344Z,598.0000
2022-12-01T02:10:27.580Z,596.0000
2022-12-01T02:11:29.825Z,597.0000
2022-12-01T02:12:32.115Z,597.0000
2022-12-01T02:13:34.509Z,597.0000
2022-12-01T02:14:36.662Z,599.0000
2022-12-01T02:15:38.938Z,601.0000
2022-12-01T02:16:41.264Z,599.0000
2022-12-01T02:17:41.990Z,597.0000
2022-12-01T02:18:43.812Z,592.0000
2022-12-01T02:19:46.041Z,595.0000
2022-12-01T02:20:48.108Z,595.0000
2022-12-01T02:21:50.353Z,594.0000
2022-12-01T02:22:54.003Z,597.0000
2022-12-01T02:23:52.745Z,592.0000
2022-12-01T02:24:54.977Z,593.0000
2022-12-01T02:25:55.025Z,595.0000
2022-12-01T02:26:57.253Z,594.0000
2022-12-01T02:27:59.459Z,594.0000
2022-12-01T02:29:01.758Z,595.0000
2022-12-01T02:30:03.987Z,597.0000
2022-12-01T02:31:06.375Z,598.0000
2022-12-01T02:32:08.555Z,597.0000
2022-12-01T02:33:08.693Z,599.0000
2022-12-01T02:34:11.029Z,598.0000
2022-12-01T02:35:13.239Z,598.0000
2022-12-01T02:36:15.509Z,596.0000
2022-12-01T02:37:17.751Z,594.0000
2022-12-01T02:38:19.985Z,597.0000
2022-12-01T02:39:22.267Z,598.0000
2022-12-01T02:40:24.514Z,595.0000
2022-12-01T02:41:26.788Z,595.0000
2022-12-01T02:42:26.876Z,592.0000
2022-12-01T02:43:29.124Z,594.0000
2022-12-01T02:44:31.401Z,593.0000
2022-12-01T02:45:33.704Z,591.0000
2022-12-01T02:46:36.063Z,592.0000
2022-12-01T02:47:38.330Z,593.0000
2022-12-01T02:48:40.603Z,597.0000
2022-12-01T02:49:40.948Z,588.0000
2022-12-01T02:50:43.160Z,586.0000
2022-12-01T02:51:45.511Z,589.0000
2022-12-01T02:52:47.857Z,586.0000
2022-12-01T02:53:50.245Z,581.0000
2022-12-01T02:54:50.446Z,580.0000
2022-12-01T02:55:52.720Z,579.0000
2022-12-01T02:56:55.027Z,578.0000
2022-12-01T02:57:57.346Z,582.0000
2022-12-01T02:58:59.655Z,580.0000
2022-12-01T03:00:02.023Z,576.0000
2022-12-01T03:01:02.276Z,579.0000
2022-12-01T03:02:04.477Z,582.0000
2022-12-01T03:03:06.766Z,577.0000
2022-12-01T03:04:09.066Z,580.0000
2022-12-01T03:05:11.395Z,581.0000
2022-12-01T03:06:13.638Z,581.0000
2022-12-01T03:07:13.788Z,579.0000
2022-12-01T03:08:16.091Z,584.0000
2022-12-01T03:09:18.417Z,585.0000
2022-12-01T03:10:20.789Z,582.0000
2022-12-01T03:11:23.072Z,585.0000
2022-12-01T03:12:25.395Z,583.0000
2022-12-01T03:13:25.538Z,583.0000
2022-12-01T03:14:27.832Z,579.0000
2022-12-01T03:15:30.191Z,577.0000
2022-12-01T03:16:32.543Z,578.0000
2022-12-01T03:17:34.700Z,577.0000
2022-12-01T03:18:37.038Z,580.0000
2022-12-01T03:19:37.236Z,579.0000
2022-12-01T03:20:39.650Z,579.0000
2022-12-01T03:21:41.935Z,580.0000
2022-12-01T03:22:44.296Z,579.0000
2022-12-01T03:23:46.628Z,580.0000
2022-12-01T03:24:46.825Z,578.0000
2022-12-01T03:25:49.190Z,576.0000
2022-12-01T03:26:51.494Z,576.0000
2022-12-01T03:28:19.843Z,574.0000
2022-12-01T03:28:56.114Z,573.0000
2022-12-01T03:29:58.385Z,577.0000
2022-12-01T03:30:58.652Z,577.0000
2022-12-01T03:32:00.721Z,576.0000
2022-12-01T03:33:02.994Z,580.0000
2022-12-01T03:34:05.264Z,577.0000
2022-12-01T03:35:07.522Z,578.0000
2022-12-01T03:36:07.653Z,578.0000
2022-12-01T03:37:09.906Z,573.0000
2022-12-01T03:38:12.201Z,574.0000
2022-12-01T03:39:14.485Z,573.0000
2022-12-01T03:40:14.645Z,572.0000
2022-12-01T03:41:17.003Z,573.0000
2022-12-01T03:42:17.131Z,573.0000
2022-12-01T03:43:19.439Z,572.0000
2022-12-01T03:44:21.743Z,570.0000
2022-12-01T03:45:24.035Z,573.0000
2022-12-01T03:46:26.398Z,578.0000
2022-12-01T03:47:28.642Z,574.0000
2022-12-01T03:48:30.897Z,573.0000
2022-12-01T03:49:31.069Z,569.0000
2022-12-01T03:50:33.371Z,572.0000
2022-12-01T03:51:35.722Z,572.0000
2022-12-01T03:52:37.977Z,572.0000
2022-12-01T03:53:40.271Z,570.0000
2022-12-01T03:54:42.595Z,571.0000
2022-12-01T03:55:42.752Z,575.0000
2022-12-01T03:56:45.103Z,576.0000
2022-12-01T03:57:47.403Z,576.0000
2022-12-01T03:58:49.731Z,574.0000
2022-12-01T03:59:52.015Z,571.0000
2022-12-01T04:00:54.309Z,566.0000
2022-12-01T04:01:54.630Z,567.0000
2022-12-01T04:02:56.816Z,563.0000
2022-12-01T04:03:59.034Z,564.0000
2022-12-01T04:05:01.340Z,567.0000
2022-12-01T04:06:03.627Z,567.0000
2022-12-01T04:07:05.977Z,568.0000
2022-12-01T04:08:08.269Z,569.0000
2022-12-01T04:09:08.338Z,565.0000
2022-12-01T04:10:10.628Z,565.0000
2022-12-01T04:11:12.907Z,574.0000
2022-12-01T04:12:15.362Z,576.0000
2022-12-01T04:13:17.568Z,575.0000
2022-12-01T04:14:19.895Z,578.0000
2022-12-01T04:15:20.094Z,587.0000
2022-12-01T04:16:22.493Z,594.0000
2022-12-01T04:17:24.844Z,593.0000
2022-12-01T04:18:27.105Z,599.0000
2022-12-01T04:19:27.260Z,602.0000
2022-12-01T04:21:12.577Z,608.0000
2022-12-01T04:22:14.848Z,592.0000
2022-12-01T04:23:17.138Z,564.0000
2022-12-01T04:24:19.396Z,550.0000
2022-12-01T04:26:04.728Z,565.0000
2022-12-01T04:27:06.890Z,576.0000
2022-12-01T04:28:09.169Z,576.0000
2022-12-01T04:29:11.417Z,581.0000
2022-12-01T04:30:13.644Z,586.0000
2022-12-01T04:31:13.781Z,593.0000
2022-12-01T04:32:16.045Z,596.0000
2022-12-01T04:33:18.353Z,604.0000
2022-12-01T04:34:20.698Z,611.0000
2022-12-01T04:35:22.969Z,617.0000
2022-12-01T04:36:25.292Z,617.0000
2022-12-01T04:37:25.478Z,625.0000
2022-12-01T04:38:30.920Z,632.0000
2022-12-01T04:39:30.110Z,638.0000
2022-12-01T04:40:32.409Z,648.0000
2022-12-01T04:41:34.723Z,650.0000
2022-12-01T04:42:34.901Z,655.0000
2022-12-01T04:43:37.224Z,656.0000
2022-12-01T04:44:39.577Z,662.0000
2022-12-01T04:45:41.852Z,662.0000
2022-12-01T04:46:44.278Z,663.0000
2022-12-01T04:47:46.490Z,668.0000
2022-12-01T04:48:46.676Z,669.0000
2022-12-01T04:49:49.489Z,673.0000
2022-12-01T04:50:51.332Z,678.0000
2022-12-01T04:51:53.638Z,677.0000
2022-12-01T04:52:55.984Z,682.0000
2022-12-01T04:53:58.255Z,683.0000
2022-12-01T04:54:58.374Z,689.0000
2022-12-01T04:56:00.574Z,687.0000
2022-12-01T04:57:02.814Z,685.0000
2022-12-01T04:58:05.014Z,691.0000
2022-12-01T04:59:07.245Z,694.0000
2022-12-01T05:00:09.616Z,689.0000
2022-12-01T05:01:11.876Z,689.0000
2022-12-01T05:02:14.053Z,690.0000
2022-12-01T05:03:16.275Z,692.0000
2022-12-01T05:04:16.410Z,686.0000
2022-12-01T05:05:18.822Z,690.0000
2022-12-01T05:06:20.897Z,690.0000
2022-12-01T05:07:23.208Z,692.0000
2022-12-01T05:08:25.393Z,691.0000
2022-12-01T05:09:27.645Z,691.0000
2022-12-01T05:10:29.965Z,695.0000
2022-12-01T05:11:32.239Z,693.0000
2022-12-01T05:12:34.513Z,697.0000
2022-12-01T05:13:34.641Z,700.0000
2022-12-01T05:14:36.910Z,700.0000
2022-12-01T05:15:39.265Z,698.0000
2022-12-01T05:16:41.481Z,705.0000
2022-12-01T05:17:43.677Z,703.0000
2022-12-01T05:18:46.006Z,708.0000
2022-12-01T05:19:48.665Z,710.0000
2022-12-01T05:20:50.620Z,709.0000
2022-12-01T05:21:50.634Z,707.0000
2022-12-01T05:23:07.571Z,704.0000
2022-12-01T05:23:55.225Z,706.0000
2022-12-01T05:24:57.516Z,707.0000
2022-12-01T05:25:59.846Z,702.0000
2022-12-01T05:27:02.113Z,701.0000
2022-12-01T05:28:04.397Z,706.0000
2022-12-01T05:29:04.525Z,709.0000
2022-12-01T05:30:06.827Z,711.0000
2022-12-01T05:31:09.335Z,713.0000
2022-12-01T05:32:11.442Z,716.0000
2022-12-01T05:33:13.745Z,716.0000
2022-12-01T05:34:16.039Z,717.0000
2022-12-01T05:35:16.201Z,723.0000
2022-12-01T05:36:18.474Z,719.0000
2022-12-01T05:37:20.731Z,720.0000
2022-12-01T05:38:22.982Z,724.0000
2022-12-01T05:39:25.318Z,723.0000
2022-12-01T05:40:27.643Z,721.0000
2022-12-01T05:41:27.984Z,720.0000
2022-12-01T05:42:30.223Z,724.0000
2022-12-01T05:43:32.582Z,724.0000
2022-12-01T05:44:34.936Z,723.0000
2022-12-01T05:45:35.211Z,722.0000
2022-12-01T05:46:37.451Z,722.0000
2022-12-01T05:47:39.765Z,724.0000
2022-12-01T05:48:42.110Z,725.0000
2022-12-01T05:49:44.473Z,728.0000
2022-12-01T05:50:44.668Z,726.0000
2022-12-01T05:51:47.068Z,729.0000
2022-12-01T05:52:49.349Z,733.0000
2022-12-01T05:53:51.711Z,733.0000
2022-12-01T05:54:54.075Z,733.0000
2022-12-01T05:55:56.398Z,732.0000
2022-12-01T05:56:56.655Z,734.0000
2022-12-01T05:57:58.794Z,734.0000
2022-12-01T05:59:01.080Z,734.0000
2022-12-01T06:00:03.392Z,735.0000
2022-12-01T06:01:05.702Z,737.0000
2022-12-01T06:02:08.098Z,736.0000
2022-12-01T06:03:08.183Z,737.0000
2022-12-01T06:04:10.557Z,733.0000
2022-12-01T06:05:12.803Z,734.0000
2022-12-01T06:06:15.124Z,740.0000
2022-12-01T06:07:17.416Z,743.0000
2022-12-01T06:08:19.688Z,749.0000
2022-12-01T06:09:21.945Z,747.0000
2022-12-01T06:10:22.154Z,755.0000
2022-12-01T06:12:42.040Z,726.0000
2022-12-01T06:13:44.161Z,730.0000
2022-12-01T06:14:44.290Z,735.0000
2022-12-01T06:15:46.622Z,736.0000
2022-12-01T06:16:48.962Z,740.0000
2022-12-01T06:17:53.423Z,744.0000
2022-12-01T06:18:47.133Z,740.0000
2022-12-01T06:19:47.808Z,731.0000
2022-12-01T06:20:49.617Z,737.0000
2022-12-01T06:21:51.935Z,741.0000
2022-12-01T06:22:54.246Z,744.0000
2022-12-01T06:23:56.514Z,748.0000
2022-12-01T06:24:58.820Z,749.0000
2022-12-01T06:25:58.974Z,750.0000
2022-12-01T06:27:01.244Z,754.0000
2022-12-01T06:28:03.707Z,754.0000
2022-12-01T06:29:05.899Z,748.0000
2022-12-01T06:30:08.217Z,750.0000
2022-12-01T06:31:10.546Z,747.0000
2022-12-01T06:32:12.800Z,749.0000
2022-12-01T06:33:12.878Z,746.0000
2022-12-01T06:34:15.120Z,746.0000
2022-12-01T06:35:17.389Z,743.0000
2022-12-01T06:36:19.629Z,742.0000
2022-12-01T06:37:21.876Z,744.0000
2022-12-01T06:38:24.208Z,745.0000
2022-12-01T06:39:26.414Z,743.0000
2022-12-01T06:40:28.673Z,748.0000
2022-12-01T06:41:28.769Z,750.0000
2022-12-01T06:42:31.032Z,750.0000
2022-12-01T06:43:33.341Z,753.0000
2022-12-01T06:44:35.551Z,746.0000
2022-12-01T06:45:37.796Z,751.0000
2022-12-01T06:46:40.083Z,752.0000
2022-12-01T06:47:42.258Z,754.0000
2022-12-01T06:48:44.783Z,753.0000
2022-12-01T06:49:47.242Z,753.0000
2022-12-01T06:50:49.115Z,752.0000
2022-12-01T06:51:49.250Z,754.0000
2022-12-01T06:52:51.552Z,756.0000
2022-12-01T06:53:53.828Z,755.0000
2022-12-01T06:54:56.079Z,758.0000
2022-12-01T06:55:58.338Z,752.0000
2022-12-01T06:57:00.647Z,754.0000
2022-12-01T06:58:02.895Z,753.0000
2022-12-01T06:59:03.068Z,755.0000
2022-12-01T07:00:05.311Z,759.0000
2022-12-01T07:01:07.673Z,759.0000
2022-12-01T07:02:09.939Z,757.0000
2022-12-01T07:03:12.182Z,757.0000
2022-12-01T07:04:14.586Z,756.0000
2022-12-01T07:05:16.730Z,757.0000
2022-12-01T07:06:16.841Z,755.0000
2022-12-01T07:07:19.125Z,750.0000
2022-12-01T07:08:21.386Z,752.0000
2022-12-01T07:09:23.702Z,753.0000
2022-12-01T07:10:25.932Z,755.0000
2022-12-01T07:11:28.460Z,758.0000
2022-12-01T07:12:30.621Z,755.0000
2022-12-01T07:13:33.826Z,757.0000
2022-12-01T07:14:33.082Z,756.0000
2022-12-01T07:15:35.311Z,754.0000
2022-12-01T07:16:37.640Z,757.0000
2022-12-01T07:17:39.854Z,760.0000
2022-12-01T07:18:42.084Z,761.0000
2022-12-01T07:19:44.507Z,760.0000
2022-12-01T07:20:46.660Z,760.0000
2022-12-01T07:21:46.817Z,757.0000
2022-12-01T07:22:49.078Z,758.0000
2022-12-01T07:23:51.410Z,755.0000
2022-12-01T07:24:53.730Z,757.0000
2022-12-01T07:25:56.024Z,758.0000
2022-12-01T07:26:58.317Z,761.0000
2022-12-01T07:27:58.494Z,762.0000
2022-12-01T07:29:00.795Z,761.0000
2022-12-01T07:30:03.198Z,758.0000
2022-12-01T07:31:05.612Z,754.0000
2022-12-01T07:32:07.847Z,763.0000
2022-12-01T07:33:08.031Z,760.0000
2022-12-01T07:34:10.303Z,765.0000
2022-12-01T07:36:08.562Z,762.0000
2022-12-01T07:37:10.751Z,761.0000
2022-12-01T07:38:16.552Z,762.0000
2022-12-01T07:39:15.246Z,763.0000
2022-12-01T07:40:17.518Z,764.0000
2022-12-01T07:41:19.923Z,736.0000
2022-12-01T07:42:19.931Z,643.0000
2022-12-01T07:43:24.344Z,682.0000
2022-12-01T07:44:13.732Z,709.0000
2022-12-01T07:45:15.951Z,726.0000
2022-12-01T07:46:22.817Z,735.0000
2022-12-01T07:47:20.505Z,740.0000
2022-12-01T07:48:22.739Z,741.0000
2022-12-01T07:49:22.813Z,742.0000
2022-12-01T07:50:25.035Z,742.0000
2022-12-01T07:51:27.315Z,746.0000
2022-12-01T07:52:29.643Z,747.0000
2022-12-01T07:53:31.906Z,745.0000
2022-12-01T07:54:34.208Z,748.0000
2022-12-01T07:55:36.503Z,751.0000
2022-12-01T07:56:38.795Z,748.0000
2022-12-01T07:57:39.095Z,750.0000
2022-12-01T07:58:41.361Z,749.0000
2022-12-01T07:59:43.720Z,747.0000
2022-12-01T08:00:45.983Z,746.0000
2022-12-01T08:01:48.405Z,745.0000
2022-12-01T08:02:48.684Z,747.0000
2022-12-01T08:03:50.929Z,747.0000
2022-12-01T08:04:53.296Z,746.0000
2022-12-01T08:05:55.637Z,747.0000
2022-12-01T08:06:57.996Z,742.0000
2022-12-01T08:07:58.494Z,741.0000
2022-12-01T08:09:00.586Z,741.0000
2022-12-01T08:10:02.911Z,740.0000
2022-12-01T08:11:05.216Z,738.0000
2022-12-01T08:12:07.572Z,741.0000
2022-12-01T08:13:09.852Z,737.0000
2022-12-01T08:14:10.069Z,736.0000
2022-12-01T08:15:12.395Z,739.0000
2022-12-01T08:16:14.772Z,739.0000
2022-12-01T08:17:16.997Z,738.0000
2022-12-01T08:18:17.337Z,735.0000
2022-12-01T08:19:19.584Z,516.0000
2022-12-01T08:20:24.081Z,548.0000
2022-12-01T08:21:24.315Z,421.0000
2022-12-01T08:22:26.690Z,484.0000
2022-12-01T08:23:26.991Z,492.0000
2022-12-01T08:24:29.317Z,508.0000
2022-12-01T08:25:31.689Z,539.0000
2022-12-01T08:26:34.031Z,598.0000
2022-12-01T08:27:34.225Z,626.0000
2022-12-01T08:28:36.666Z,638.0000
2022-12-01T08:29:38.929Z,643.0000
2022-12-01T08:30:41.290Z,647.0000
2022-12-01T08:31:43.593Z,650.0000
2022-12-01T08:32:43.834Z,653.0000
2022-12-01T08:33:46.260Z,654.0000
2022-12-01T08:34:53.321Z,654.0000
2022-12-01T08:35:50.979Z,652.0000
2022-12-01T08:36:53.346Z,654.0000
2022-12-01T08:37:53.556Z,658.0000
2022-12-01T08:38:55.971Z,660.0000
2022-12-01T08:39:58.309Z,658.0000
2022-12-01T08:41:00.672Z,664.0000
2022-12-01T08:42:00.907Z,664.0000
2022-12-01T08:43:03.277Z,660.0000
2022-12-01T08:44:05.667Z,656.0000
2022-12-01T08:45:07.939Z,657.0000
2022-12-01T08:47:31.944Z,657.0000
2022-12-01T08:48:34.159Z,651.0000
2022-12-01T08:49:34.303Z,652.0000
2022-12-01T08:50:36.613Z,652.0000
2022-12-01T08:51:38.905Z,654.0000
2022-12-01T08:52:41.235Z,653.0000
2022-12-01T08:53:45.697Z,652.0000
2022-12-01T08:54:43.875Z,649.0000
2022-12-01T08:55:46.057Z,646.0000
2022-12-01T08:56:48.402Z,644.0000
2022-12-01T08:57:50.740Z,644.0000
2022-12-01T08:58:50.950Z,639.0000
2022-12-01T08:59:54.624Z,642.0000
2022-12-01T09:00:53.484Z,637.0000
2022-12-01T09:01:55.764Z,637.0000
2022-12-01T09:02:58.131Z,635.0000
2022-12-01T09:04:00.319Z,633.0000
2022-12-01T09:05:02.868Z,638.0000
2022-12-01T09:06:05.001Z,641.0000
2022-12-01T09:07:05.227Z,640.0000
2022-12-01T09:08:07.624Z,618.0000
2022-12-01T09:09:09.903Z,596.0000
2022-12-01T09:10:12.254Z,609.0000
2022-12-01T09:11:14.520Z,618.0000
2022-12-01T09:12:14.650Z,632.0000
2022-12-01T09:13:16.889Z,635.0000
2022-12-01T09:14:19.131Z,633.0000
2022-12-01T09:15:21.437Z,631.0000
2022-12-01T09:16:23.881Z,630.0000
2022-12-01T09:17:25.963Z,630.0000
2022-12-01T09:18:28.235Z,631.0000
2022-12-01T09:19:30.525Z,629.0000
2022-12-01T09:20:30.803Z,628.0000
2022-12-01T09:21:32.942Z,626.0000
2022-12-01T09:22:35.226Z,631.0000
2022-12-01T09:23:37.534Z,632.0000
2022-12-01T09:24:39.824Z,633.0000
2022-12-01T09:25:42.418Z,631.0000
2022-12-01T09:26:42.224Z,634.0000
2022-12-01T09:27:44.522Z,634.0000
2022-12-01T09:28:46.814Z,632.0000
2022-12-01T09:29:49.413Z,636.0000
2022-12-01T09:30:51.439Z,633.0000
2022-12-01T09:31:53.798Z,632.0000
2022-12-01T09:32:56.058Z,631.0000
2022-12-01T09:33:56.247Z,630.0000
2022-12-01T09:34:58.538Z,627.0000
2022-12-01T09:36:00.861Z,626.0000
2022-12-01T09:37:03.145Z,625.0000
2022-12-01T09:38:05.447Z,628.0000
2022-12-01T09:39:07.802Z,629.0000
2022-12-01T09:40:08.005Z,627.0000
2022-12-01T09:41:10.833Z,627.0000
2022-12-01T09:42:12.691Z,636.0000
2022-12-01T09:43:14.998Z,634.0000
2022-12-01T09:44:17.359Z,636.0000
2022-12-01T09:45:17.553Z,637.0000
2022-12-01T09:46:19.996Z,634.0000
2022-12-01T09:47:22.236Z,634.0000
2022-12-01T09:48:24.579Z,631.0000
2022-12-01T09:49:26.933Z,627.0000
2022-12-01T09:50:27.154Z,626.0000
2022-12-01T09:51:29.561Z,628.0000
2022-12-01T09:52:31.887Z,631.0000
2022-12-01T09:53:34.252Z,628.0000
2022-12-01T09:54:36.626Z,630.0000
2022-12-01T09:55:36.811Z,630.0000
2022-12-01T09:56:39.156Z,629.0000
2022-12-01T09:57:41.406Z,628.0000
2022-12-01T09:58:43.696Z,627.0000
2022-12-01T09:59:46.162Z,624.0000
2022-12-01T10:00:46.244Z,626.0000
2022-12-01T10:01:48.771Z,627.0000
2022-12-01T10:02:50.889Z,628.0000
2022-12-01T10:03:53.139Z,623.0000
2022-12-01T10:04:55.514Z,620.0000
2022-12-01T10:06:25.979Z,619.0000
2022-12-01T10:06:58.059Z,620.0000
2022-12-01T10:08:00.421Z,620.0000
2022-12-01T10:09:02.619Z,616.0000
2022-12-01T10:10:04.925Z,619.0000
2022-12-01T10:11:07.232Z,620.0000
2022-12-01T10:12:09.627Z,620.0000
2022-12-01T10:13:09.658Z,621.0000
2022-12-01T10:14:15.155Z,621.0000
2022-12-01T10:16:46.815Z,615.0000
2022-12-01T10:17:49.109Z,615.0000
2022-12-01T10:18:49.247Z,614.0000
2022-12-01T10:19:51.844Z,613.0000
2022-12-01T10:20:53.829Z,610.0000
2022-12-01T10:21:56.155Z,613.0000
2022-12-01T10:22:58.573Z,617.0000
2022-12-01T10:24:00.739Z,616.0000
2022-12-01T10:25:03.056Z,615.0000
2022-12-01T10:26:03.229Z,616.0000
2022-12-01T10:27:05.550Z,617.0000
2022-12-01T10:28:07.912Z,619.0000
2022-12-01T10:29:10.228Z,619.0000
2022-12-01T10:30:12.538Z,616.0000
2022-12-01T10:31:12.765Z,613.0000
2022-12-01T10:32:15.015Z,617.0000
2022-12-01T10:33:17.471Z,617.0000
2022-12-01T10:34:19.720Z,618.0000
2022-12-01T10:35:22.031Z,617.0000
2022-12-01T10:36:24.381Z,618.0000
2022-12-01T10:37:24.725Z,617.0000
2022-12-01T10:38:26.979Z,618.0000
2022-12-01T10:39:29.293Z,615.0000
2022-12-01T10:40:31.637Z,614.0000
2022-12-01T10:41:33.986Z,612.0000
2022-12-01T10:42:34.185Z,610.0000
2022-12-01T10:43:36.536Z,609.0000
2022-12-01T10:44:38.807Z,608.0000
2022-12-01T10:45:41.170Z,608.0000
2022-12-01T10:46:43.495Z,607.0000
2022-12-01T10:47:43.689Z,608.0000
2022-12-01T10:48:46.080Z,609.0000
2022-12-01T10:49:48.822Z,607.0000
2022-12-01T10:50:50.745Z,604.0000
2022-12-01T10:51:53.106Z,604.0000
2022-12-01T10:52:55.433Z,602.0000
2022-12-01T10:53:56.760Z,605.0000
2022-12-01T10:54:57.988Z,601.0000
2022-12-01T10:55:58.193Z,601.0000
2022-12-01T10:57:00.424Z,603.0000
2022-12-01T10:58:07.729Z,598.0000
2022-12-01T10:59:05.146Z,595.0000
2022-12-01T11:00:07.314Z,591.0000
2022-12-01T11:01:09.725Z,592.0000
2022-12-01T11:02:12.109Z,589.0000
2022-12-01T11:03:15.682Z,591.0000
2022-12-01T11:04:14.310Z,594.0000
2022-12-01T11:05:16.628Z,596.0000
2022-12-01T11:06:18.905Z,594.0000
2022-12-01T11:07:21.207Z,596.0000
2022-12-01T11:08:23.481Z,598.0000
2022-12-01T11:09:26.526Z,597.0000
2022-12-01T11:10:25.916Z,596.0000
2022-12-01T11:11:28.175Z,593.0000
2022-12-01T11:12:30.475Z,591.0000
2022-12-01T11:13:32.747Z,589.0000
2022-12-01T11:14:35.101Z,592.0000
2022-12-01T11:15:37.389Z,594.0000
2022-12-01T11:16:39.767Z,597.0000
2022-12-01T11:17:39.880Z,597.0000
2022-12-01T11:18:42.245Z,598.0000
2022-12-01T11:19:44.613Z,600.0000
2022-12-01T11:20:46.833Z,602.0000
2022-12-01T11:21:49.034Z,599.0000
2022-12-01T11:22:51.330Z,593.0000
2022-12-01T11:23:51.483Z,590.0000
2022-12-01T11:24:53.880Z,589.0000
2022-12-01T11:25:56.072Z,589.0000
2022-12-01T11:26:58.383Z,588.0000
2022-12-01T11:28:00.699Z,588.0000
2022-12-01T11:29:03.154Z,591.0000
2022-12-01T11:30:04.243Z,589.0000
2022-12-01T11:31:05.456Z,584.0000
2022-12-01T11:32:07.748Z,584.0000
2022-12-01T11:33:09.934Z,588.0000
2022-12-01T11:34:12.210Z,586.0000
2022-12-01T11:35:14.541Z,585.0000
2022-12-01T11:36:16.802Z,583.0000
2022-12-01T11:37:16.938Z,585.0000
2022-12-01T11:38:34.634Z,584.0000
2022-12-01T11:39:21.526Z,583.0000
2022-12-01T11:40:23.827Z,583.0000
2022-12-01T11:42:56.451Z,574.0000
2022-12-01T11:44:01.842Z,572.0000
2022-12-01T11:45:00.837Z,574.0000
2022-12-01T11:46:03.262Z,578.0000
2022-12-01T11:47:22.130Z,575.0000
2022-12-01T11:48:07.518Z,574.0000
2022-12-01T11:49:09.779Z,574.0000
2022-12-01T11:50:12.033Z,568.0000
2022-12-01T11:51:12.130Z,569.0000
2022-12-01T11:52:14.385Z,573.0000
2022-12-01T11:53:16.613Z,580.0000
2022-12-01T11:54:18.867Z,580.0000
2022-12-01T11:55:21.131Z,581.0000
2022-12-01T11:56:23.628Z,582.0000
2022-12-01T11:57:34.263Z,585.0000
2022-12-01T11:58:27.838Z,583.0000
2022-12-01T11:59:30.070Z,580.0000
2022-12-01T12:00:32.332Z,578.0000
2022-12-01T12:01:32.503Z,578.0000
2022-12-01T12:02:34.713Z,579.0000
2022-12-01T12:03:36.971Z,576.0000
2022-12-01T12:04:39.226Z,576.0000
2022-12-01T12:05:41.500Z,578.0000
2022-12-01T12:06:43.791Z,573.0000
2022-12-01T12:07:46.219Z,574.0000
2022-12-01T12:08:48.442Z,574.0000
2022-12-01T12:09:48.881Z,572.0000
2022-12-01T12:10:50.832Z,572.0000
2022-12-01T12:11:53.131Z,571.0000
2022-12-01T12:12:55.408Z,568.0000
2022-12-01T12:13:57.725Z,565.0000
2022-12-01T12:15:00.053Z,563.0000
2022-12-01T12:16:00.219Z,564.0000